KCCR/CCR METAR and TAF weather

Enter ICAO airport designator
Station Type Date Time Source
KCCR METAR 2022/12/04 11:53 UTC NOAA

KCCR 041153Z AUTO 22004KT 10SM OVC024 09/08 A3000 RMK AO2 RAE19 SLP143 P0000 60000 70095 T00890078 10089 20044 53007


Station Type Date Time Source
KCCR Decoded METAR 2022/12/04 11:53 UTC NOAA

CONCORD BUCHANAN FIELD, CA, United States (KCCR) 38-00N 122-03W 11M
Dec 04, 2022 - 06:53 AM EST / 2022.12.04 1153 UTC
Wind: from the SW (220 degrees) at 5 MPH (4 KT):0
Visibility: 10 mile(s):0
Sky conditions: overcast
Precipitation last hour: A trace
Temperature: 48.0 F (8.9 C)
Dew Point: 46.0 F (7.8 C)
Relative Humidity: 92%
Pressure (altimeter): 30 in. Hg (1015 hPa)
Pressure tendency: 0.02 inches (0.7 hPa) higher than three hours ago
ob: KCCR 041153Z AUTO 22004KT 10SM OVC024 09/08 A3000 RMK AO2 RAE19 SLP143 P0000 60000 70095 T00890078 10089 20044 53007
cycle: 12

Station Type Date Time Source
KCCR TAF 2016/02/08 18:39 UTC NOAA

TAF KCCR 081738Z 0818/0918 07006KT P6SM SKC
FM082000 06010KT P6SM SKC
FM090000 06005KT P6SM SKC
FM090600 VRB03KT P6SM SKC

Example: see airport list